createdAt,value
2022-11-16T00:01:46.694Z,15.20
2022-11-16T00:04:13.192Z,15.20
2022-11-16T00:06:39.667Z,15.20
2022-11-16T00:09:06.130Z,15.30
2022-11-16T00:11:32.677Z,15.20
2022-11-16T00:13:59.156Z,15.30
2022-11-16T00:16:25.642Z,15.20
2022-11-16T00:18:52.130Z,15.20
2022-11-16T00:21:18.637Z,15.20
2022-11-16T00:23:45.103Z,15.20
2022-11-16T00:26:11.583Z,15.20
2022-11-16T00:28:38.030Z,15.30
2022-11-16T00:31:04.502Z,15.20
2022-11-16T00:33:30.980Z,15.20
2022-11-16T00:35:57.433Z,15.30
2022-11-16T00:38:23.904Z,15.20
2022-11-16T00:40:50.359Z,15.20
2022-11-16T00:43:16.829Z,15.30
2022-11-16T00:45:43.300Z,15.20
2022-11-16T00:48:09.767Z,15.20
2022-11-16T00:50:36.217Z,15.20
2022-11-16T00:53:02.654Z,15.20
2022-11-16T00:55:29.118Z,15.20
2022-11-16T00:57:55.591Z,15.20
2022-11-16T01:00:22.074Z,15.20
2022-11-16T01:02:48.574Z,15.20
2022-11-16T01:05:15.026Z,15.20
2022-11-16T01:07:41.507Z,15.20
2022-11-16T01:10:07.940Z,15.20
2022-11-16T01:12:34.409Z,15.20
2022-11-16T01:15:00.861Z,15.30
2022-11-16T01:17:27.352Z,15.20
2022-11-16T01:19:53.838Z,15.20
2022-11-16T01:22:20.318Z,15.20
2022-11-16T01:24:46.772Z,15.20
2022-11-16T01:27:13.231Z,15.20
2022-11-16T01:29:39.744Z,15.20
2022-11-16T01:32:06.218Z,15.20
2022-11-16T01:34:32.671Z,15.20
2022-11-16T01:36:59.147Z,15.20
2022-11-16T01:39:25.639Z,15.20
2022-11-16T01:41:54.513Z,15.20
2022-11-16T01:44:21.511Z,15.20
2022-11-16T01:46:47.971Z,15.20
2022-11-16T01:49:14.448Z,15.20
2022-11-16T01:51:40.898Z,15.20
2022-11-16T01:54:07.351Z,15.20
2022-11-16T01:56:33.807Z,15.10
2022-11-16T01:59:00.290Z,15.20
2022-11-16T02:01:26.778Z,15.20
2022-11-16T02:03:53.261Z,15.10
2022-11-16T02:06:19.706Z,15.20
2022-11-16T02:08:46.181Z,15.20
2022-11-16T02:11:12.636Z,15.20
2022-11-16T02:13:39.090Z,15.10
2022-11-16T02:16:05.567Z,15.20
2022-11-16T02:18:32.411Z,15.20
2022-11-16T02:20:59.227Z,15.20
2022-11-16T02:23:25.719Z,15.20
2022-11-16T02:25:52.183Z,15.20
2022-11-16T02:28:18.669Z,15.20
2022-11-16T02:30:45.135Z,15.20
2022-11-16T02:33:11.603Z,15.20
2022-11-16T02:35:38.064Z,15.20
2022-11-16T02:38:04.545Z,15.20
2022-11-16T02:40:31.018Z,15.20
2022-11-16T02:42:57.472Z,15.10
2022-11-16T02:45:23.923Z,15.10
2022-11-16T02:47:50.393Z,15.10
2022-11-16T02:50:16.849Z,15.10
2022-11-16T02:52:43.318Z,15.10
2022-11-16T02:58:00.056Z,15.10
2022-11-16T03:00:26.537Z,15.10
2022-11-16T03:02:53.000Z,15.20
2022-11-16T03:05:19.510Z,15.20
2022-11-16T03:07:46.020Z,15.20
2022-11-16T03:10:12.484Z,15.20
2022-11-16T03:12:38.932Z,15.20
2022-11-16T03:15:05.409Z,15.20
2022-11-16T03:17:31.874Z,15.20
2022-11-16T03:19:58.399Z,15.20
2022-11-16T03:22:24.879Z,15.20
2022-11-16T03:24:51.360Z,15.20
2022-11-16T03:27:17.819Z,15.20
2022-11-16T03:29:44.288Z,15.20
2022-11-16T03:32:10.732Z,15.20
2022-11-16T03:34:37.303Z,15.20
2022-11-16T03:37:03.784Z,15.30
2022-11-16T03:39:30.253Z,15.20
2022-11-16T03:41:56.714Z,15.20
2022-11-16T03:44:23.181Z,15.20
2022-11-16T03:46:49.663Z,15.20
2022-11-16T03:49:16.106Z,15.20
2022-11-16T03:51:42.578Z,15.20
2022-11-16T03:54:09.053Z,15.20
2022-11-16T03:56:35.500Z,15.20
2022-11-16T03:59:01.956Z,15.20
2022-11-16T04:01:28.476Z,15.20
2022-11-16T04:03:54.951Z,15.20
2022-11-16T04:06:21.590Z,15.20
2022-11-16T04:08:48.081Z,15.20
2022-11-16T04:11:14.561Z,15.20
2022-11-16T04:13:41.038Z,15.20
2022-11-16T04:16:07.503Z,15.20
2022-11-16T04:18:34.422Z,15.20
2022-11-16T04:21:01.202Z,15.30
2022-11-16T04:23:27.655Z,15.20
2022-11-16T04:25:54.873Z,15.20
2022-11-16T04:28:21.347Z,15.20
2022-11-16T04:30:47.831Z,15.20
2022-11-16T04:33:14.289Z,15.20
2022-11-16T04:35:40.852Z,15.20
2022-11-16T04:38:07.328Z,15.20
2022-11-16T04:40:33.777Z,15.20
2022-11-16T04:43:00.237Z,15.20
2022-11-16T04:45:26.739Z,15.20
2022-11-16T04:47:53.222Z,15.20
2022-11-16T04:50:19.709Z,15.30
2022-11-16T04:52:46.163Z,15.30
2022-11-16T04:55:12.651Z,15.30
2022-11-16T04:57:39.122Z,15.30
2022-11-16T05:00:05.605Z,15.30
2022-11-16T05:02:32.073Z,15.30
2022-11-16T05:04:58.539Z,15.20
2022-11-16T05:07:25.081Z,15.20
2022-11-16T05:09:51.579Z,15.20
2022-11-16T05:12:18.044Z,15.20
2022-11-16T05:14:44.499Z,15.20
2022-11-16T05:17:10.977Z,15.20
2022-11-16T05:19:37.437Z,15.20
2022-11-16T05:22:03.887Z,15.20
2022-11-16T05:24:30.402Z,15.20
2022-11-16T05:26:56.862Z,15.20
2022-11-16T05:29:23.327Z,15.20
2022-11-16T05:31:52.743Z,15.30
2022-11-16T05:34:19.286Z,15.30
2022-11-16T05:36:45.786Z,15.30
2022-11-16T05:39:12.254Z,15.30
2022-11-16T05:41:38.735Z,15.30
2022-11-16T05:44:05.190Z,15.30
2022-11-16T05:46:31.652Z,15.30
2022-11-16T05:48:58.142Z,15.20
2022-11-16T05:51:24.606Z,15.30
2022-11-16T05:53:51.076Z,15.30
2022-11-16T05:56:17.587Z,15.20
2022-11-16T05:58:44.196Z,15.30
2022-11-16T06:01:10.652Z,15.30
2022-11-16T06:03:37.191Z,15.20
2022-11-16T06:06:03.710Z,15.30
2022-11-16T06:08:30.171Z,15.30
2022-11-16T06:10:56.648Z,15.20
2022-11-16T06:13:23.123Z,15.30
2022-11-16T06:15:55.205Z,15.20
2022-11-16T06:18:21.726Z,15.20
2022-11-16T06:23:28.520Z,15.20
2022-11-16T06:25:54.982Z,15.20
2022-11-16T06:28:21.443Z,15.20
2022-11-16T06:30:47.936Z,15.20
2022-11-16T06:33:14.415Z,15.20
2022-11-16T06:35:40.917Z,15.20
2022-11-16T06:38:07.385Z,15.20
2022-11-16T06:40:33.843Z,15.20
2022-11-16T06:43:00.341Z,15.20
2022-11-16T06:45:26.802Z,15.20
2022-11-16T06:47:53.267Z,15.30
2022-11-16T06:50:19.755Z,15.20
2022-11-16T06:52:46.242Z,15.30
2022-11-16T06:55:12.736Z,15.20
2022-11-16T06:57:39.193Z,15.30
2022-11-16T07:00:05.650Z,15.20
2022-11-16T07:02:32.118Z,15.20
2022-11-16T07:05:03.314Z,15.20
2022-11-16T07:07:30.336Z,15.20
2022-11-16T07:09:56.949Z,15.20
2022-11-16T07:12:23.406Z,15.30
2022-11-16T07:14:49.851Z,15.20
2022-11-16T07:17:16.324Z,15.20
2022-11-16T07:19:42.768Z,15.20
2022-11-16T07:22:09.245Z,15.30
2022-11-16T07:24:35.719Z,15.20
2022-11-16T07:27:02.179Z,15.20
2022-11-16T07:29:28.665Z,15.20
2022-11-16T07:31:55.127Z,15.20
2022-11-16T07:34:21.601Z,15.20
2022-11-16T07:36:48.074Z,15.20
2022-11-16T07:39:14.527Z,15.30
2022-11-16T07:41:40.991Z,15.30
2022-11-16T07:44:12.270Z,15.30
2022-11-16T07:46:47.939Z,15.20
2022-11-16T07:49:14.995Z,15.30
2022-11-16T07:51:41.566Z,15.30
2022-11-16T07:54:08.016Z,15.30
2022-11-16T07:56:34.491Z,15.30
2022-11-16T07:59:00.938Z,15.20
2022-11-16T08:01:27.481Z,15.20
2022-11-16T08:03:54.018Z,15.20
2022-11-16T08:06:21.873Z,15.20
2022-11-16T08:08:50.385Z,15.20
2022-11-16T08:11:18.900Z,15.20
2022-11-16T08:13:51.164Z,15.20
2022-11-16T08:16:17.651Z,15.30
2022-11-16T08:18:45.198Z,15.30
2022-11-16T08:21:11.750Z,15.30
2022-11-16T08:23:38.232Z,15.30
2022-11-16T08:26:04.721Z,15.30
2022-11-16T08:28:31.491Z,15.20
2022-11-16T08:30:58.263Z,15.20
2022-11-16T08:33:24.709Z,15.20
2022-11-16T08:35:51.215Z,15.20
2022-11-16T08:38:17.702Z,15.20
2022-11-16T08:40:44.181Z,15.20
2022-11-16T08:43:10.639Z,15.20
2022-11-16T08:45:37.115Z,15.20
2022-11-16T08:48:04.314Z,15.30
2022-11-16T08:50:33.461Z,15.30
2022-11-16T08:53:06.251Z,15.20
2022-11-16T08:55:32.700Z,15.30
2022-11-16T08:57:59.169Z,15.20
2022-11-16T09:00:25.626Z,15.20
2022-11-16T09:02:52.079Z,15.30
2022-11-16T09:05:21.318Z,15.30
2022-11-16T09:07:47.802Z,15.30
2022-11-16T09:10:14.268Z,15.30
2022-11-16T09:12:40.736Z,15.30
2022-11-16T09:15:07.194Z,15.30
2022-11-16T09:17:33.644Z,15.30
2022-11-16T09:20:00.093Z,15.30
2022-11-16T09:22:26.895Z,15.30
2022-11-16T09:24:53.358Z,15.30
2022-11-16T09:27:19.816Z,15.30
2022-11-16T09:29:46.269Z,15.30
2022-11-16T09:32:12.760Z,15.30
2022-11-16T09:34:39.225Z,15.30
2022-11-16T09:37:05.667Z,15.30
2022-11-16T09:39:32.442Z,15.30
2022-11-16T09:41:59.090Z,15.30
2022-11-16T09:44:25.540Z,15.30
2022-11-16T09:46:52.028Z,15.30
2022-11-16T09:49:18.491Z,15.30
2022-11-16T09:51:44.998Z,15.30
2022-11-16T09:54:14.322Z,15.30
2022-11-16T09:56:40.791Z,15.30
2022-11-16T09:59:07.262Z,15.30
2022-11-16T10:01:33.842Z,15.40
2022-11-16T10:04:00.310Z,15.30
2022-11-16T10:06:26.782Z,15.30
2022-11-16T10:08:53.243Z,15.30
2022-11-16T10:11:19.734Z,15.30
2022-11-16T10:13:46.219Z,15.40
2022-11-16T10:16:12.738Z,15.30
2022-11-16T10:18:39.263Z,15.40
2022-11-16T10:21:05.715Z,15.40
2022-11-16T10:23:32.301Z,15.40
2022-11-16T10:25:59.040Z,15.40
2022-11-16T10:28:25.490Z,15.40
2022-11-16T10:30:51.954Z,15.30
2022-11-16T10:33:18.406Z,15.30
2022-11-16T10:35:44.902Z,15.30
2022-11-16T10:38:11.370Z,15.30
2022-11-16T10:40:37.896Z,15.40
2022-11-16T10:43:04.361Z,15.40
2022-11-16T10:45:30.825Z,15.30
2022-11-16T10:47:57.355Z,15.40
2022-11-16T10:50:23.822Z,15.30
2022-11-16T10:52:50.261Z,15.40
2022-11-16T10:55:16.695Z,15.40
2022-11-16T10:57:43.142Z,15.40
2022-11-16T11:00:12.699Z,15.40
2022-11-16T11:02:40.334Z,15.40
2022-11-16T11:05:06.778Z,15.40
2022-11-16T11:07:33.311Z,15.40
2022-11-16T11:09:59.799Z,15.40
2022-11-16T11:12:26.239Z,15.40
2022-11-16T11:14:52.695Z,15.40
2022-11-16T11:17:19.164Z,15.30
2022-11-16T11:19:45.631Z,15.40
2022-11-16T11:22:12.105Z,15.40
2022-11-16T11:24:44.460Z,15.40
2022-11-16T11:27:11.452Z,15.40
2022-11-16T11:29:37.927Z,15.40
2022-11-16T11:32:04.396Z,15.40
2022-11-16T11:34:30.863Z,15.40
2022-11-16T11:36:57.345Z,15.50
2022-11-16T11:39:24.082Z,15.40
2022-11-16T11:41:50.593Z,15.40
2022-11-16T11:44:17.075Z,15.40
2022-11-16T11:47:28.750Z,15.50
2022-11-16T11:49:33.585Z,15.50
2022-11-16T11:52:00.547Z,15.50
2022-11-16T11:54:27.013Z,15.50
2022-11-16T11:56:53.474Z,15.50
2022-11-16T11:59:19.941Z,15.40
2022-11-16T12:01:46.408Z,15.50
2022-11-16T12:04:12.880Z,15.50
2022-11-16T12:06:43.771Z,15.50
2022-11-16T12:09:10.731Z,15.50
2022-11-16T12:11:37.208Z,15.50
2022-11-16T12:14:03.760Z,15.50
2022-11-16T12:16:30.216Z,15.50
2022-11-16T12:18:56.687Z,15.50
2022-11-16T12:21:23.183Z,15.50
2022-11-16T12:23:49.662Z,15.50
2022-11-16T12:26:16.111Z,15.50
2022-11-16T12:28:44.006Z,15.50
2022-11-16T12:31:13.632Z,15.50
2022-11-16T12:33:40.073Z,15.50
2022-11-16T12:36:06.540Z,15.50
2022-11-16T12:38:33.004Z,15.50
2022-11-16T12:40:59.473Z,15.50
2022-11-16T12:43:25.920Z,15.50
2022-11-16T12:45:52.474Z,15.50
2022-11-16T12:48:18.967Z,15.50
2022-11-16T12:50:45.523Z,15.50
2022-11-16T12:53:11.976Z,15.60
2022-11-16T12:55:38.455Z,15.50
2022-11-16T12:58:04.927Z,15.50
2022-11-16T13:00:31.423Z,15.50
2022-11-16T13:02:57.906Z,15.50
2022-11-16T13:05:24.453Z,15.50
2022-11-16T13:07:50.924Z,15.50
2022-11-16T13:10:17.433Z,15.50
2022-11-16T13:12:43.920Z,15.50
2022-11-16T13:15:10.387Z,15.50
2022-11-16T13:17:36.838Z,15.50
2022-11-16T13:20:03.291Z,15.50
2022-11-16T13:22:29.980Z,15.50
2022-11-16T13:24:56.474Z,15.50
2022-11-16T13:27:22.987Z,15.50
2022-11-16T13:29:49.434Z,15.50
2022-11-16T13:32:15.959Z,15.50
2022-11-16T13:34:42.423Z,15.50
2022-11-16T13:37:08.880Z,15.50
2022-11-16T13:39:35.338Z,15.50
2022-11-16T13:42:01.807Z,15.50
2022-11-16T13:44:28.281Z,15.50
2022-11-16T13:46:56.608Z,15.50
2022-11-16T13:49:23.465Z,15.50
2022-11-16T13:51:49.937Z,15.50
2022-11-16T13:54:44.540Z,15.50
2022-11-16T13:57:02.913Z,15.50
2022-11-16T13:59:29.382Z,15.50
2022-11-16T14:01:55.848Z,15.50
2022-11-16T14:04:22.321Z,15.50
2022-11-16T14:06:48.918Z,15.50
2022-11-16T14:09:15.395Z,15.50
2022-11-16T14:11:41.857Z,15.50
2022-11-16T14:14:08.321Z,15.50
2022-11-16T14:16:35.330Z,15.50
2022-11-16T14:19:01.778Z,15.50
2022-11-16T14:21:28.262Z,15.50
2022-11-16T14:23:54.746Z,15.50
2022-11-16T14:26:21.206Z,15.50
2022-11-16T14:28:47.667Z,15.50
2022-11-16T14:31:14.136Z,15.50
2022-11-16T14:33:40.582Z,15.50
2022-11-16T14:36:07.041Z,15.50
2022-11-16T14:38:33.508Z,15.50
2022-11-16T14:41:00.229Z,15.50
2022-11-16T14:43:26.776Z,15.50
2022-11-16T14:45:53.240Z,15.50
2022-11-16T14:48:19.696Z,15.50
2022-11-16T14:50:46.165Z,15.50
2022-11-16T14:53:12.679Z,15.50
2022-11-16T14:55:39.136Z,15.50
2022-11-16T14:58:05.605Z,15.50
2022-11-16T15:00:32.050Z,15.50
2022-11-16T15:03:02.654Z,15.50
2022-11-16T15:05:29.536Z,15.50
2022-11-16T15:07:55.996Z,15.40
2022-11-16T15:10:22.458Z,15.40
2022-11-16T15:12:48.915Z,15.40
2022-11-16T15:15:15.394Z,15.40
2022-11-16T15:17:41.915Z,15.40
2022-11-16T15:20:08.389Z,15.40
2022-11-16T15:22:36.000Z,15.40
2022-11-16T15:25:02.449Z,15.40
2022-11-16T15:27:28.906Z,15.40
2022-11-16T15:29:55.379Z,15.40
2022-11-16T15:32:21.824Z,15.40
2022-11-16T15:34:48.294Z,15.40
2022-11-16T15:37:14.781Z,15.40
2022-11-16T15:39:44.110Z,15.40
2022-11-16T15:42:10.578Z,15.30
2022-11-16T15:44:37.052Z,15.30
2022-11-16T15:47:03.507Z,15.30
2022-11-16T15:49:30.114Z,15.30
2022-11-16T15:51:56.578Z,15.30
2022-11-16T15:54:23.066Z,15.30
2022-11-16T15:56:49.552Z,15.30
2022-11-16T15:59:16.053Z,15.30
2022-11-16T16:01:42.723Z,15.30
2022-11-16T16:04:09.304Z,15.30
2022-11-16T16:06:35.762Z,15.30
2022-11-16T16:09:02.225Z,15.40
2022-11-16T16:11:28.682Z,15.30
2022-11-16T16:13:55.116Z,15.30
2022-11-16T16:16:21.575Z,15.30
2022-11-16T16:18:48.058Z,15.30
2022-11-16T16:21:14.530Z,15.30
2022-11-16T16:23:41.008Z,15.30
2022-11-16T16:26:07.475Z,15.40
2022-11-16T16:28:33.981Z,15.30
2022-11-16T16:31:00.472Z,15.30
2022-11-16T16:33:26.949Z,15.30
2022-11-16T16:35:53.401Z,15.30
2022-11-16T16:38:19.873Z,15.30
2022-11-16T16:40:46.397Z,15.30
2022-11-16T16:43:12.872Z,15.30
2022-11-16T16:45:39.332Z,15.30
2022-11-16T16:48:05.993Z,15.30
2022-11-16T16:50:32.423Z,15.30
2022-11-16T16:52:58.890Z,15.30
2022-11-16T16:55:25.357Z,15.30
2022-11-16T16:57:51.890Z,15.30
2022-11-16T17:00:18.368Z,15.30
2022-11-16T17:02:45.006Z,15.30
2022-11-16T17:05:11.452Z,15.30
2022-11-16T17:07:37.966Z,15.30
2022-11-16T17:10:04.511Z,15.30
2022-11-16T17:12:30.966Z,15.30
2022-11-16T17:14:57.495Z,15.30
2022-11-16T17:17:29.788Z,15.30
2022-11-16T17:19:56.243Z,15.30
2022-11-16T17:22:22.790Z,15.30
2022-11-16T17:24:49.256Z,15.30
2022-11-16T17:27:15.749Z,15.30
2022-11-16T17:29:42.202Z,15.30
2022-11-16T17:32:08.681Z,15.30
2022-11-16T17:34:35.151Z,15.30
2022-11-16T17:37:01.728Z,15.30
2022-11-16T17:39:28.212Z,15.30
2022-11-16T17:41:54.758Z,15.30
2022-11-16T17:44:22.112Z,15.30
2022-11-16T17:46:48.898Z,15.30
2022-11-16T17:49:15.399Z,15.20
2022-11-16T17:51:41.882Z,15.20
2022-11-16T17:54:08.381Z,15.20
2022-11-16T17:56:34.843Z,15.20
2022-11-16T17:59:01.304Z,15.20
2022-11-16T18:01:27.820Z,15.20
2022-11-16T18:03:54.358Z,15.20
2022-11-16T18:09:01.162Z,15.20
2022-11-16T18:11:27.631Z,15.20
2022-11-16T18:13:54.111Z,15.20
2022-11-16T18:16:20.574Z,15.20
2022-11-16T18:18:47.038Z,15.20
2022-11-16T18:21:18.899Z,15.20
2022-11-16T18:23:47.005Z,15.10
2022-11-16T18:26:13.482Z,15.20
2022-11-16T18:28:39.938Z,15.10
2022-11-16T18:31:06.515Z,15.10
2022-11-16T18:33:33.603Z,15.10
2022-11-16T18:36:00.340Z,15.10
2022-11-16T18:38:26.801Z,15.20
2022-11-16T18:40:54.039Z,15.20
2022-11-16T18:43:20.499Z,15.20
2022-11-16T18:45:46.993Z,15.10
2022-11-16T18:48:13.455Z,15.20
2022-11-16T18:50:39.952Z,15.10
2022-11-16T18:53:06.521Z,15.10
2022-11-16T18:55:32.995Z,15.20
2022-11-16T18:57:59.449Z,15.20
2022-11-16T19:00:26.119Z,15.20
2022-11-16T19:02:52.581Z,15.20
2022-11-16T19:05:19.107Z,15.20
2022-11-16T19:07:45.604Z,15.20
2022-11-16T19:10:12.086Z,15.20
2022-11-16T19:12:38.558Z,15.10
2022-11-16T19:15:05.044Z,15.20
2022-11-16T19:17:31.568Z,15.10
2022-11-16T19:19:58.039Z,15.20
2022-11-16T19:22:24.505Z,15.10
2022-11-16T19:24:50.969Z,15.10
2022-11-16T19:27:17.433Z,15.10
2022-11-16T19:29:46.920Z,15.10
2022-11-16T19:32:13.382Z,15.10
2022-11-16T19:34:39.850Z,15.10
2022-11-16T19:37:06.329Z,15.10
2022-11-16T19:39:32.794Z,15.10
2022-11-16T19:41:59.244Z,15.10
2022-11-16T19:44:25.809Z,15.10
2022-11-16T19:46:52.249Z,15.10
2022-11-16T19:49:20.089Z,15.10
2022-11-16T19:51:46.932Z,15.10
2022-11-16T19:54:13.392Z,15.10
2022-11-16T19:56:39.874Z,15.10
2022-11-16T19:59:06.447Z,15.10
2022-11-16T20:01:32.990Z,15.10
2022-11-16T20:04:04.641Z,15.10
2022-11-16T20:06:31.098Z,15.10
2022-11-16T20:08:57.556Z,15.10
2022-11-16T20:11:24.026Z,15.10
2022-11-16T20:13:50.497Z,15.00
2022-11-16T20:16:16.955Z,15.10
2022-11-16T20:18:43.389Z,15.10
2022-11-16T20:21:10.029Z,15.10
2022-11-16T20:23:36.852Z,15.10
2022-11-16T20:26:03.580Z,15.10
2022-11-16T20:28:30.448Z,15.00
2022-11-16T20:30:56.949Z,15.10
2022-11-16T20:33:23.416Z,15.10
2022-11-16T20:35:49.909Z,15.00
2022-11-16T20:38:16.369Z,15.00
2022-11-16T20:40:42.868Z,15.10
2022-11-16T20:43:09.353Z,15.00
2022-11-16T20:45:35.868Z,15.10
2022-11-16T20:48:02.358Z,15.10
2022-11-16T20:50:28.833Z,15.00
2022-11-16T20:52:55.298Z,15.10
2022-11-16T20:55:21.756Z,15.00
2022-11-16T20:57:48.241Z,15.00
2022-11-16T21:00:14.709Z,15.00
2022-11-16T21:02:41.172Z,15.00
2022-11-16T21:05:07.635Z,15.00
2022-11-16T21:07:34.149Z,15.00
2022-11-16T21:12:42.877Z,15.00
2022-11-16T21:15:09.504Z,15.00
2022-11-16T21:17:35.965Z,15.00
2022-11-16T21:20:25.700Z,15.00
2022-11-16T21:22:48.838Z,15.00
2022-11-16T21:25:15.307Z,15.00
2022-11-16T21:27:41.780Z,15.00
2022-11-16T21:30:08.265Z,15.00
2022-11-16T21:32:34.706Z,15.00
2022-11-16T21:35:04.616Z,14.90
2022-11-16T21:37:31.070Z,14.90
2022-11-16T21:39:57.537Z,15.00
2022-11-16T21:42:24.016Z,15.00
2022-11-16T21:44:50.490Z,15.00
2022-11-16T21:47:19.367Z,15.00
2022-11-16T21:50:08.667Z,15.00
2022-11-16T21:52:33.864Z,15.00
2022-11-16T21:55:00.363Z,15.00
2022-11-16T21:57:26.863Z,15.00
2022-11-16T21:59:53.332Z,15.00
2022-11-16T22:02:19.788Z,15.00
2022-11-16T22:04:46.261Z,15.00
2022-11-16T22:07:12.750Z,15.00
2022-11-16T22:09:39.227Z,15.10
2022-11-16T22:12:05.715Z,15.00
2022-11-16T22:14:32.185Z,15.10
2022-11-16T22:16:58.662Z,15.00
2022-11-16T22:19:25.140Z,15.10
2022-11-16T22:21:51.636Z,15.00
2022-11-16T22:24:18.095Z,15.00
2022-11-16T22:26:44.963Z,15.00
2022-11-16T22:29:11.419Z,15.00
2022-11-16T22:31:38.057Z,15.00
2022-11-16T22:34:04.541Z,15.00
2022-11-16T22:36:31.022Z,15.00
2022-11-16T22:38:57.500Z,15.00
2022-11-16T22:41:24.040Z,15.00
2022-11-16T22:43:50.522Z,15.00
2022-11-16T22:46:17.005Z,14.90
2022-11-16T22:48:45.539Z,15.00
2022-11-16T22:51:12.002Z,14.90
2022-11-16T22:53:38.694Z,14.90
2022-11-16T22:56:05.324Z,14.90
2022-11-16T22:58:31.815Z,14.90
2022-11-16T23:00:58.259Z,14.90
2022-11-16T23:03:24.773Z,15.00
2022-11-16T23:05:51.296Z,14.90
2022-11-16T23:08:17.761Z,15.00
2022-11-16T23:10:49.113Z,14.90
2022-11-16T23:13:15.796Z,15.00
2022-11-16T23:15:42.259Z,15.00
2022-11-16T23:18:08.772Z,15.00
2022-11-16T23:23:15.556Z,15.00
2022-11-16T23:25:42.021Z,15.00
2022-11-16T23:28:08.473Z,15.00
2022-11-16T23:30:34.963Z,15.00
2022-11-16T23:33:01.454Z,15.00
2022-11-16T23:35:27.921Z,15.00
2022-11-16T23:37:54.429Z,15.00
2022-11-16T23:40:20.925Z,15.00
2022-11-16T23:42:47.411Z,15.00
2022-11-16T23:45:13.868Z,15.00
2022-11-16T23:47:40.316Z,15.00
2022-11-16T23:50:06.778Z,15.00
2022-11-16T23:52:33.259Z,15.00
2022-11-16T23:54:59.758Z,15.00
2022-11-16T23:57:26.256Z,15.00
2022-11-16T23:59:52.731Z,15.00
